WXM80 ListenWXM80 Stop

You find our weather info also at:

UK Metoffice

WeatherCloud

Weather Underground

Northeastern Weather Network

AWEKAS

Citizen Weather Observer Program (CWOP)

HAMweather, WeatherForYou, PWS Weather


Weather Underground History page Text

Daily Summary for February 11, 2018 Units:  Metric    English   Both
« Previous Day
Next Day »
Daily Weekly Monthly Yearly Custom
  High: Low: Average:
Temperature: 14.1 °C 5.1 °C 9 °C
Dew Point: 13.9 °C 4.7 °C 8.6 °C
Humidity: 99 % 96 % 98 %
Wind Speed: 19.2 km/h 0 km/h 4.3 km/h
Wind Gust: 31.5 km/h - -
Wind:- - South
Pressure: 1010 hPa 1002.3 hPa -
Precipitation: 18.29 mm    
Historical Graphs
 
 
Tabular Data for February 11, 2018
Time Temperature Dew Point Pressure Wind Wind Speed Wind Gust Humidity Rainfall Rate (Hourly)
00:03 6.6 °C 6.1 °C 1008.4 hPa Calm     97 % 0.25 mm
00:08 6.5 °C 6.1 °C 1008.7 hPa Calm     97 % 0.25 mm
00:13 6.3 °C 5.9 °C 1008.4 hPa Calm     97 % 0.25 mm
00:18 6.2 °C 5.6 °C 1008.7 hPa Calm     96 % 0.25 mm
00:24 6.2 °C 5.7 °C 1008.4 hPa Calm     97 % 0.25 mm
00:29 6.1 °C 5.6 °C 1008.7 hPa Calm     97 % 0 mm
00:34 6 °C 5.6 °C 1008.4 hPa Calm     97 % 0 mm
00:39 6 °C 5.6 °C 1008.4 hPa Calm     97 % 0 mm
00:44 5.9 °C 5.3 °C 1008.4 hPa Calm     96 % 0 mm
00:49 5.9 °C 5.3 °C 1008.4 hPa Calm     96 % 0 mm
00:54 5.9 °C 5.3 °C 1008.4 hPa Calm   1.9 km/h 96 % 0.25 mm
00:59 5.9 °C 5.3 °C 1008.4 hPa Calm     96 % 0.25 mm
01:04 5.9 °C 5.3 °C 1008.4 hPa Calm     96 % 0.25 mm
01:09 6.1 °C 5.6 °C 1008.4 hPa West 0.3 km/h   97 % 0.25 mm
01:14 6.2 °C 5.7 °C 1008.4 hPa Calm     97 % 0.51 mm
01:19 6.3 °C 5.9 °C 1008.4 hPa West 0.5 km/h 1.6 km/h 97 % 0.51 mm
01:24 6.4 °C 6 °C 1008.7 hPa Calm     97 % 0.51 mm
01:29 6.6 °C 6.1 °C 1008.4 hPa Calm     97 % 0.51 mm
01:34 6.6 °C 6.1 °C 1008.4 hPa Calm     97 % 0.76 mm
01:39 6.6 °C 6.1 °C 1008.4 hPa Calm     97 % 0.76 mm
01:44 6.6 °C 6.1 °C 1008.4 hPa Calm     97 % 0.76 mm
01:49 6.6 °C 6.1 °C 1008.4 hPa Calm     97 % 1.02 mm
01:54 6.5 °C 6.1 °C 1008.4 hPa Calm     97 % 0.76 mm
02:00 6.5 °C 6.1 °C 1008.7 hPa Calm     97 % 0.76 mm
02:05 6.6 °C 6.1 °C 1009 hPa Calm     97 % 1.02 mm
02:10 6.6 °C 6.1 °C 1009 hPa Calm     97 % 1.02 mm
02:15 6.6 °C 6.1 °C 1009 hPa West 0.5 km/h 3.7 km/h 97 % 0.76 mm
02:20 6.6 °C 6.1 °C 1009 hPa Calm   1.9 km/h 97 % 1.02 mm
02:25 6.6 °C 6.2 °C 1009 hPa Calm     97 % 1.02 mm
02:30 6.7 °C 6.2 °C 1009 hPa Calm   3.7 km/h 97 % 1.02 mm
02:35 6.7 °C 6.3 °C 1009 hPa West 1.1 km/h 3.7 km/h 97 % 1.02 mm
02:40 6.8 °C 6.3 °C 1009 hPa Calm     97 % 1.02 mm
02:45 6.8 °C 6.3 °C 1008.7 hPa Calm     97 % 1.27 mm
02:50 6.8 °C 6.3 °C 1008.7 hPa Calm     97 % 1.02 mm
02:55 6.8 °C 6.4 °C 1008.7 hPa Calm     97 % 1.02 mm
03:00 6.8 °C 6.4 °C 1008.4 hPa Calm     97 % 1.27 mm
03:05 6.8 °C 6.4 °C 1008.7 hPa Calm     97 % 1.02 mm
03:10 6.8 °C 6.4 °C 1008 hPa West 0.3 km/h 1.6 km/h 97 % 1.27 mm
03:15 6.8 °C 6.4 °C 1008.4 hPa Calm     97 % 1.27 mm
03:20 6.9 °C 6.4 °C 1008.4 hPa Calm     97 % 1.02 mm
03:25 6.9 °C 6.4 °C 1008.4 hPa Calm     97 % 0 mm
03:31 6.9 °C 6.5 °C 1008.4 hPa West 0.3 km/h 1.9 km/h 97 % 1.27 mm
03:36 6.9 °C 6.5 °C 1008.4 hPa Calm     97 % 0 mm
03:41 6.9 °C 6.5 °C 1008.4 hPa West 0.2 km/h 1.9 km/h 97 % 1.27 mm
03:46 6.9 °C 6.5 °C 1008.7 hPa Calm     97 % 1.27 mm
03:51 7 °C 6.6 °C 1008.7 hPa West 1.3 km/h 3.7 km/h 97 % 1.27 mm
03:56 7 °C 6.6 °C 1008.7 hPa Calm     97 % 1.02 mm
04:01 7 °C 6.6 °C 1008.7 hPa Calm     97 % 1.27 mm
04:06 7.1 °C 6.6 °C 1008.4 hPa Calm     97 % 1.27 mm
04:11 7.1 °C 6.6 °C 1008.7 hPa West 2.9 km/h 5.6 km/h 97 % 1.02 mm
04:16 7.1 °C 6.7 °C 1008.4 hPa Calm     97 % 1.27 mm
04:21 7.1 °C 6.7 °C 1008.7 hPa Calm     97 % 1.27 mm
04:26 7.2 °C 6.7 °C 1008.4 hPa Calm     97 % 1.02 mm
04:31 7.2 °C 6.7 °C 1008.4 hPa Calm     97 % 1.27 mm
04:36 7.2 °C 6.7 °C 1008.7 hPa Calm     97 % 1.02 mm
04:41 7.2 °C 6.8 °C 1008.4 hPa Calm     97 % 1.02 mm
04:46 7.2 °C 6.8 °C 1008.4 hPa Calm     97 % 1.02 mm
04:51 7.3 °C 6.8 °C 1008.4 hPa Calm     97 % 1.02 mm
04:56 7.3 °C 6.8 °C 1008.7 hPa Calm     97 % 1.27 mm
05:01 7.3 °C 6.8 °C 1008.7 hPa Calm     97 % 1.02 mm
05:06 7.3 °C 6.8 °C 1008.7 hPa Calm     97 % 1.02 mm
05:11 7.3 °C 6.8 °C 1008.7 hPa Calm     97 % 1.02 mm
05:16 7.3 °C 6.8 °C 1008.7 hPa Calm     97 % 0.76 mm
05:21 7.3 °C 6.8 °C 1009 hPa Calm     97 % 1.02 mm
05:27 7.3 °C 6.8 °C 1009.4 hPa Calm     97 % 1.02 mm
05:32 7.3 °C 6.8 °C 1009.4 hPa Calm     97 % 0.76 mm
05:37 7.3 °C 6.9 °C 1009.4 hPa Calm     97 % 0.76 mm
05:42 7.3 °C 6.9 °C 1009.7 hPa Calm     97 % 0.76 mm
05:47 7.4 °C 6.9 °C 1009.4 hPa Calm     97 % 0.76 mm
05:52 7.4 °C 6.9 °C 1009.4 hPa Calm     97 % 0.76 mm
05:57 7.4 °C 6.9 °C 1009.4 hPa Calm     97 % 0.51 mm
06:02 7.4 °C 6.9 °C 1009.4 hPa Calm     97 % 0.51 mm
06:07 7.4 °C 6.9 °C 1009.4 hPa Calm     97 % 0.76 mm
06:12 7.4 °C 6.9 °C 1009.4 hPa Calm     97 % 0.76 mm
06:17 7.4 °C 6.9 °C 1009.4 hPa Calm     97 % 0.51 mm
06:22 7.3 °C 6.9 °C 1009.4 hPa Calm     97 % 0.51 mm
06:27 7.3 °C 6.9 °C 1009 hPa Calm   1.9 km/h 97 % 0.51 mm
06:32 7.3 °C 6.9 °C 1008.7 hPa West 2.6 km/h 3.7 km/h 97 % 0.51 mm
06:37 7.3 °C 6.9 °C 1009.4 hPa Calm     97 % 0.76 mm
06:42 7.3 °C 6.9 °C 1009.7 hPa Calm     97 % 0.51 mm
06:47 7.3 °C 6.9 °C 1009.7 hPa Calm     97 % 0.51 mm
06:52 7.3 °C 6.9 °C 1009.7 hPa Calm     97 % 0.51 mm
06:58 7.3 °C 6.9 °C 1009.7 hPa Calm     97 % 0.51 mm
07:03 7.3 °C 6.9 °C 1010 hPa Calm     97 % 0.51 mm
07:08 7.4 °C 6.9 °C 1009.7 hPa Calm     97 % 0.51 mm
07:13 7.4 °C 7 °C 1010 hPa Calm     97 % 0.51 mm
07:18 7.4 °C 7 °C 1010 hPa Calm     97 % 0.51 mm
07:23 7.4 °C 7 °C 1010 hPa Calm     97 % 0.76 mm
07:28 7.4 °C 7 °C 1010 hPa Calm     97 % 0.76 mm
07:33 7.4 °C 7 °C 1009.4 hPa Calm   1.9 km/h 97 % 0.76 mm
07:38 7.4 °C 7 °C 1009.4 hPa West 1.1 km/h 5.6 km/h 97 % 0.76 mm
07:43 7.4 °C 7 °C 1009.4 hPa NNW 3.4 km/h 5.6 km/h 97 % 0.76 mm
07:48 7.5 °C 7.1 °C 1009.4 hPa Calm     97 % 1.02 mm
07:53 7.5 °C 7.1 °C 1009.7 hPa Calm     97 % 1.02 mm
07:58 7.6 °C 7.3 °C 1009.4 hPa Calm     98 % 1.02 mm
08:03 7.6 °C 7.3 °C 1009.4 hPa Calm     98 % 0.76 mm
08:08 7.6 °C 7.3 °C 1009 hPa Calm   1.9 km/h 98 % 0.76 mm
08:13 7.6 °C 7.2 °C 1009.4 hPa Calm     97 % 1.02 mm
08:18 7.6 °C 7.1 °C 1009.4 hPa NNW 0.6 km/h 1.9 km/h 97 % 1.02 mm
08:24 7.4 °C 7 °C 1009.4 hPa Calm   1.9 km/h 97 % 0.76 mm
08:29 7.3 °C 6.8 °C 1009.7 hPa Calm     97 % 0.76 mm
08:34 7.2 °C 6.7 °C 1009.4 hPa Calm     97 % 0.76 mm
08:39 7.1 °C 6.6 °C 1009.7 hPa Calm     97 % 0.51 mm
08:44 6.9 °C 6.5 °C 1009.7 hPa Calm     97 % 0.51 mm
08:49 6.9 °C 6.4 °C 1009.7 hPa Calm     97 % 0.25 mm
08:54 6.8 °C 6.4 °C 1009.7 hPa Calm     97 % 0.51 mm
08:59 6.8 °C 6.3 °C 1009.4 hPa Calm     97 % 0.76 mm
09:04 6.8 °C 6.3 °C 1009.4 hPa Calm     97 % 1.02 mm
09:09 6.8 °C 6.3 °C 1009.4 hPa Calm     97 % 1.02 mm
09:14 6.8 °C 6.4 °C 1009 hPa NNW 0.3 km/h 1.9 km/h 97 % 0.76 mm
09:19 6.9 °C 6.4 °C 1009.4 hPa Calm   1.9 km/h 97 % 0.76 mm
09:24 6.9 °C 6.5 °C 1009.4 hPa NNW 0.3 km/h 1.9 km/h 97 % 0.76 mm
09:29 6.9 °C 6.5 °C 1009 hPa Calm   1.9 km/h 97 % 0.76 mm
09:34 6.9 °C 6.5 °C 1009.7 hPa Calm   3.7 km/h 97 % 1.02 mm
09:39 6.9 °C 6.5 °C 1009.4 hPa Calm     97 % 1.52 mm
09:44 6.9 °C 6.5 °C 1009.4 hPa NNW 0.6 km/h 3.7 km/h 97 % 2.03 mm
09:49 6.9 °C 6.5 °C 1009.4 hPa Calm   5.6 km/h 97 % 2.79 mm
09:54 6.9 °C 6.5 °C 1009.4 hPa NNW 2.3 km/h 5.6 km/h 97 % 3.05 mm
10:00 6.9 °C 6.4 °C 1009.4 hPa Calm     97 % 3.05 mm
10:05 6.8 °C 6.4 °C 1009 hPa NNW 1.9 km/h 5.6 km/h 97 % 3.05 mm
10:10 6.8 °C 6.3 °C 1009 hPa NNW 1.4 km/h 3.2 km/h 97 % 3.56 mm
10:15 6.7 °C 6.2 °C 1008.7 hPa NNW 2.1 km/h 5.6 km/h 97 % 3.81 mm
10:20 6.6 °C 6.1 °C 1009 hPa NNW 0.3 km/h 3.7 km/h 97 % 3.81 mm
10:25 6.5 °C 6.1 °C 1009 hPa NNW 3.5 km/h 5.6 km/h 97 % 4.06 mm
10:30 6.6 °C 6.1 °C 1008.7 hPa ENE 2.4 km/h 6.4 km/h 97 % 4.06 mm
10:35 6.7 °C 6.2 °C 1008.7 hPa East 7.4 km/h 9.3 km/h 97 % 3.81 mm
10:40 6.8 °C 6.3 °C 1008.4 hPa East 6 km/h 9.3 km/h 97 % 3.3 mm
10:45 6.9 °C 6.5 °C 1008.4 hPa East 4 km/h 5.6 km/h 97 % 2.54 mm
10:50 7 °C 6.7 °C 1008.4 hPa East 1.9 km/h 3.7 km/h 98 % 2.29 mm
10:55 7.1 °C 6.8 °C 1008 hPa East 6.9 km/h 8 km/h 98 % 1.78 mm
11:00 7.2 °C 6.9 °C 1008 hPa East 5.1 km/h 9.3 km/h 98 % 1.52 mm
11:05 7.2 °C 6.9 °C 1008 hPa East 7.1 km/h 11.1 km/h 98 % 1.02 mm
11:10 7.3 °C 7.1 °C 1007.7 hPa East 3.2 km/h 9.3 km/h 98 % 1.02 mm
11:15 7.4 °C 7.1 °C 1007.7 hPa East 0.8 km/h 3.7 km/h 98 % 0.76 mm
11:20 7.5 °C 7.2 °C 1007.7 hPa SSE 2.1 km/h 5.6 km/h 98 % 0.76 mm
11:26 7.6 °C 7.3 °C 1007 hPa East 5.3 km/h 9.7 km/h 98 % 0.51 mm
11:31 7.7 °C 7.4 °C 1007 hPa East 4.8 km/h 11.3 km/h 98 % 0 mm
11:36 7.8 °C 7.5 °C 1007.3 hPa Calm   3.2 km/h 98 % 0 mm
11:41 7.8 °C 7.6 °C 1007.7 hPa Calm     98 % 0 mm
11:46 7.9 °C 7.6 °C 1007.3 hPa ENE 3.2 km/h 4.8 km/h 98 % 0 mm
11:51 8 °C 7.7 °C 1007 hPa NNE 5.6 km/h 6.4 km/h 98 % 0.51 mm
11:56 8 °C 7.7 °C 1006.3 hPa NNE 8 km/h 9.7 km/h 98 % 0 mm
12:01 7.6 °C 7.3 °C 1006 hPa NNE 7.9 km/h 11.1 km/h 98 % 0.51 mm
12:06 7.2 °C 6.7 °C 1006.3 hPa North 3.2 km/h 11.3 km/h 97 % 0 mm
12:11 6.8 °C 6.4 °C 1006.7 hPa Calm   6.4 km/h 97 % 0 mm
12:16 6.6 °C 6.2 °C 1006.7 hPa Calm   4.8 km/h 97 % 0.25 mm
12:21 6.4 °C 5.9 °C 1006.7 hPa Calm   1.6 km/h 97 % 0 mm
12:26 6.2 °C 5.8 °C 1006.7 hPa NNE 0.5 km/h 3.7 km/h 97 % 0.51 mm
12:31 6.1 °C 5.6 °C 1006.3 hPa NE 1.6 km/h 4.8 km/h 97 % 0 mm
12:36 5.9 °C 5.5 °C 1006.7 hPa Calm   4.8 km/h 97 % 0 mm
12:41 5.8 °C 5.4 °C 1006.7 hPa ENE 1.6 km/h 8 km/h 97 % 0 mm
12:46 5.7 °C 5.3 °C 1006.7 hPa ENE 3.2 km/h 9.7 km/h 97 % 0 mm
12:51 5.7 °C 5.2 °C 1006.3 hPa Calm   5.6 km/h 97 % 0.25 mm
12:56 5.7 °C 5.2 °C 1006.3 hPa Calm   4.8 km/h 97 % 0 mm
13:01 5.7 °C 5.3 °C 1005.6 hPa ENE 3.1 km/h 5.6 km/h 97 % 0.76 mm
13:06 5.8 °C 5.4 °C 1005.3 hPa East 4.3 km/h 8 km/h 97 % 0.76 mm
13:11 6 °C 5.7 °C 1005.3 hPa ENE 2.7 km/h 5.6 km/h 98 % 0.76 mm
13:16 6.1 °C 5.8 °C 1005 hPa NE 4.2 km/h 5.6 km/h 98 % 0.76 mm
13:21 6 °C 5.7 °C 1004.6 hPa ENE 2.7 km/h 5.6 km/h 98 % 0.76 mm
13:26 5.9 °C 5.5 °C 1005 hPa Calm     97 % 0.76 mm
13:31 5.8 °C 5.3 °C 1005.3 hPa NE 0.3 km/h 1.9 km/h 97 % 1.02 mm
13:36 5.8 °C 5.3 °C 1005 hPa NE 1.9 km/h 5.6 km/h 97 % 1.27 mm
13:41 5.8 °C 5.3 °C 1004.6 hPa NNE 4.2 km/h 9.3 km/h 97 % 1.52 mm
13:46 5.7 °C 5.3 °C 1004.3 hPa NNE 0.8 km/h 4.8 km/h 97 % 1.52 mm
13:51 5.7 °C 5.2 °C 1003.9 hPa NNE 2.9 km/h 5.6 km/h 97 % 1.78 mm
13:56 5.5 °C 5.1 °C 1003.9 hPa ENE 4.2 km/h 7.4 km/h 97 % 1.78 mm
14:01 5.3 °C 4.8 °C 1003.9 hPa ENE 1.4 km/h 3.7 km/h 97 % 1.52 mm
14:06 5.2 °C 4.7 °C 1003.9 hPa Calm   1.9 km/h 97 % 1.78 mm
14:12 5.1 °C 4.7 °C 1003.9 hPa Calm     97 % 1.78 mm
14:17 5.2 °C 4.7 °C 1003.9 hPa Calm   1.9 km/h 97 % 1.52 mm
14:22 5.2 °C 4.7 °C 1003.9 hPa SSE 0.8 km/h 8 km/h 97 % 1.78 mm
14:27 5.5 °C 5.1 °C 1003.6 hPa South 3.5 km/h 9.3 km/h 97 % 2.03 mm
14:32 6 °C 5.7 °C 1003.6 hPa SSW 6.6 km/h 9.3 km/h 98 % 1.78 mm
14:37 7.2 °C 6.9 °C 1003.9 hPa North 14.5 km/h 20.4 km/h 98 % 1.78 mm
14:42 7.2 °C 6.9 °C 1003.6 hPa South 1.9 km/h 5.6 km/h 98 % 1.52 mm
14:47 7.1 °C 6.8 °C 1003.6 hPa Calm   1.9 km/h 98 % 1.52 mm
14:52 7.2 °C 6.9 °C 1003.9 hPa SSE 1.8 km/h 3.7 km/h 98 % 1.27 mm
14:57 8.1 °C 7.8 °C 1003.6 hPa South 8.5 km/h 13 km/h 98 % 1.02 mm
15:02 8.8 °C 8.6 °C 1002.9 hPa SW 4.2 km/h 11.1 km/h 98 % 1.02 mm
15:07 9.4 °C 9.1 °C 1002.9 hPa SSW 1.6 km/h 7.4 km/h 98 % 0.76 mm
15:12 9.9 °C 9.8 °C 1002.9 hPa SSW 5.6 km/h 9.7 km/h 99 % 0.76 mm
15:17 10.7 °C 10.4 °C 1003.3 hPa South 9.3 km/h 14.5 km/h 98 % 1.02 mm
15:22 11.1 °C 10.9 °C 1002.9 hPa South 13.5 km/h 20.9 km/h 99 % 0.76 mm
15:27 11.3 °C 11.1 °C 1002.6 hPa SSW 12.6 km/h 18.5 km/h 99 % 0.51 mm
15:32 11.4 °C 11.3 °C 1002.3 hPa South 8.9 km/h 18.5 km/h 99 % 0.51 mm
15:37 11.6 °C 11.4 °C 1002.6 hPa South 11.1 km/h 18.5 km/h 99 % 0.25 mm
15:42 11.6 °C 11.4 °C 1002.6 hPa SSW 10.9 km/h 16.7 km/h 99 % 0.25 mm
15:47 11.7 °C 11.6 °C 1002.6 hPa South 11.9 km/h 16.7 km/h 99 % 0.25 mm
15:52 11.9 °C 11.7 °C 1002.3 hPa SSW 11.3 km/h 25.9 km/h 99 % 0.25 mm
15:58 12.1 °C 11.9 °C 1002.3 hPa South 15.6 km/h 20.4 km/h 99 % 0.51 mm
16:03 12.6 °C 12.4 °C 1002.3 hPa South 5.8 km/h 20.4 km/h 99 % 0.51 mm
16:08 12.7 °C 12.5 °C 1002.3 hPa South 12.7 km/h 18.5 km/h 99 % 0.51 mm
16:13 12.7 °C 12.5 °C 1002.3 hPa SSW 8 km/h 20.4 km/h 99 % 0.51 mm
16:18 12.6 °C 12.4 °C 1002.3 hPa South 10 km/h 18.5 km/h 99 % 0.25 mm
16:23 12.6 °C 12.4 °C 1002.6 hPa SSW 9.8 km/h 16.7 km/h 99 % 0.25 mm
16:28 12.5 °C 12.3 °C 1002.3 hPa SSW 9.2 km/h 14.8 km/h 99 % 0.25 mm
16:33 12.6 °C 12.4 °C 1002.3 hPa SW 9.8 km/h 18.5 km/h 99 % 0.51 mm
16:38 12.7 °C 12.6 °C 1002.6 hPa SW 9.3 km/h 25.7 km/h 99 % 0.51 mm
16:43 12.9 °C 12.6 °C 1002.3 hPa SSW 14.6 km/h 18.5 km/h 98 % 0.51 mm
16:48 12.9 °C 12.6 °C 1002.3 hPa South 9.7 km/h 20.4 km/h 98 % 0.51 mm
16:53 13.1 °C 12.9 °C 1002.6 hPa SSW 10.1 km/h 22.2 km/h 99 % 0.51 mm
16:59 13.1 °C 12.9 °C 1002.6 hPa South 11.7 km/h 18.5 km/h 99 % 0.25 mm
17:04 13.1 °C 12.9 °C 1002.6 hPa SSW 10 km/h 22.2 km/h 99 % 0.25 mm
17:09 13.1 °C 12.9 °C 1002.3 hPa SSW 9.8 km/h 16.7 km/h 99 % 0.25 mm
17:14 13.2 °C 13 °C 1002.3 hPa South 12.6 km/h 18.5 km/h 99 % 0.25 mm
17:19 13.1 °C 12.9 °C 1002.3 hPa South 11.1 km/h 18.5 km/h 99 % 0.25 mm
17:24 13.1 °C 12.9 °C 1002.3 hPa South 4.2 km/h 9.3 km/h 99 % 0.25 mm
17:29 13.1 °C 12.9 °C 1002.3 hPa SSW 8.9 km/h 13 km/h 99 % 0.51 mm
17:34 13.1 °C 12.9 °C 1002.3 hPa SSW 6.1 km/h 11.1 km/h 99 % 0.25 mm
17:39 13.1 °C 12.9 °C 1002.3 hPa SSW 8.9 km/h 18.5 km/h 99 % 0.25 mm
17:44 13 °C 12.8 °C 1002.3 hPa SW 10.3 km/h 18.5 km/h 99 % 0.25 mm
17:49 12.9 °C 12.6 °C 1002.3 hPa SSW 10.1 km/h 16.1 km/h 98 % 0.25 mm
17:54 12.8 °C 12.5 °C 1002.3 hPa WSW 7.9 km/h 18.5 km/h 98 % 0.51 mm
17:59 12.7 °C 12.4 °C 1003.3 hPa WSW 8.9 km/h 18.5 km/h 98 % 0.76 mm
18:04 12.7 °C 12.3 °C 1002.9 hPa SSW 8 km/h 18.5 km/h 98 % 1.27 mm
18:09 12.5 °C 12.2 °C 1002.6 hPa SW 9.3 km/h 14.5 km/h 98 % 1.27 mm
18:14 12.4 °C 12.1 °C 1002.9 hPa SW 13.2 km/h 22.2 km/h 98 % 1.52 mm
18:19 12.3 °C 12 °C 1002.6 hPa SSW 11.1 km/h 31.5 km/h 98 % 1.52 mm
18:25 12.2 °C 11.8 °C 1002.9 hPa SSW 9 km/h 22.2 km/h 98 % 1.52 mm
18:30 12.1 °C 11.7 °C 1002.9 hPa South 19.2 km/h 27.8 km/h 98 % 1.27 mm
18:35 12 °C 11.7 °C 1002.9 hPa SSW 16.1 km/h 25.9 km/h 98 % 1.27 mm
18:40 12 °C 11.7 °C 1002.9 hPa South 15.8 km/h 29.6 km/h 98 % 1.27 mm
18:45 12 °C 11.7 °C 1002.9 hPa SW 11.1 km/h 20.4 km/h 98 % 1.27 mm
18:50 12.1 °C 11.7 °C 1002.9 hPa South 9.8 km/h 17.7 km/h 98 % 1.27 mm
18:55 12.1 °C 11.8 °C 1002.9 hPa SSW 7.9 km/h 14.8 km/h 98 % 1.27 mm
19:00 12.2 °C 11.9 °C 1002.9 hPa SSW 9.3 km/h 13 km/h 98 % 0.76 mm
19:05 12.4 °C 12.1 °C 1002.9 hPa SSW 9.8 km/h 14.8 km/h 98 % 0.51 mm
19:10 12.5 °C 12.2 °C 1002.9 hPa South 9.3 km/h 17.7 km/h 98 % 0.51 mm
19:15 12.5 °C 12.2 °C 1002.9 hPa SSW 9.8 km/h 18.5 km/h 98 % 0.25 mm
19:20 12.4 °C 12.1 °C 1002.9 hPa South 12.2 km/h 22.2 km/h 98 % 0.25 mm
19:25 12.3 °C 12 °C 1003.3 hPa SSW 9 km/h 14.8 km/h 98 % 0.25 mm
19:30 12.3 °C 12 °C 1002.9 hPa SE 11.3 km/h 22.2 km/h 98 % 0.25 mm
19:35 12.4 °C 12.1 °C 1003.3 hPa South 9.7 km/h 14.8 km/h 98 % 0.25 mm
19:40 12.4 °C 12.1 °C 1003.3 hPa South 7.6 km/h 18.5 km/h 98 % 0.25 mm
19:45 12.4 °C 12.1 °C 1003.3 hPa South 14.3 km/h 18.5 km/h 98 % 0.25 mm
19:51 12.5 °C 12.2 °C 1003.3 hPa SSW 12.4 km/h 16.7 km/h 98 % 0.25 mm
19:56 12.5 °C 12.2 °C 1003.3 hPa South 12.9 km/h 24.1 km/h 98 % 0 mm
20:00 12.5 °C 12.2 °C 1003.3 hPa South 14.3 km/h 24.1 km/h 98 % 0 mm
20:06 12.5 °C 12.2 °C 1003.3 hPa South 9.7 km/h 25.7 km/h 98 % 0 mm
20:11 12.5 °C 12.2 °C 1003.3 hPa South 9.7 km/h 19.3 km/h 98 % 0 mm
20:16 12.6 °C 12.2 °C 1003.3 hPa SSW 9.7 km/h 20.9 km/h 98 % 0 mm
20:21 12.6 °C 12.3 °C 1003.3 hPa SSW 9.7 km/h 19.3 km/h 98 % 0 mm
20:26 12.6 °C 12.3 °C 1003.3 hPa South 11.3 km/h 22.5 km/h 98 % 0 mm
20:30 12.7 °C 12.3 °C 1002.9 hPa SSE 10.3 km/h 18.5 km/h 98 % 0 mm
20:36 12.7 °C 12.3 °C 1003.3 hPa South 9.7 km/h 19.3 km/h 98 % 0 mm
20:40 12.6 °C 12.3 °C 1003.3 hPa South 9.2 km/h 20.4 km/h 98 % 0 mm
20:46 12.6 °C 12.2 °C 1003.3 hPa SSW 9.7 km/h 20.9 km/h 98 % 0 mm
20:51 12.6 °C 12.2 °C 1003.3 hPa SSW 9.7 km/h 24.1 km/h 98 % 0 mm
20:56 12.6 °C 12.3 °C 1003.3 hPa SSE 9.2 km/h 13 km/h 98 % 0 mm
21:00 12.6 °C 12.2 °C 1003.3 hPa South 6.3 km/h 18.5 km/h 98 % 0 mm
21:06 12.6 °C 12.2 °C 1003.3 hPa SSW 9.7 km/h 19.3 km/h 98 % 0 mm
21:11 12.6 °C 12.2 °C 1003.3 hPa SSW 9.7 km/h 16.1 km/h 98 % 0 mm
21:15 12.6 °C 12.2 °C 1003.3 hPa South 9.2 km/h 13 km/h 98 % 0 mm
21:21 12.6 °C 12.2 °C 1003.3 hPa South 8 km/h 19.3 km/h 98 % 0 mm
21:26 12.6 °C 12.3 °C 1003.3 hPa SSW 9.7 km/h 19.3 km/h 98 % 0 mm
21:31 12.7 °C 12.3 °C 1003.3 hPa SSW 9.7 km/h 19.3 km/h 98 % 0 mm
21:36 12.7 °C 12.4 °C 1003.6 hPa SSW 8 km/h 19.3 km/h 98 % 0 mm
21:41 12.7 °C 12.3 °C 1003.3 hPa SSW 8 km/h 16.1 km/h 98 % 0 mm
21:46 12.6 °C 12.3 °C 1003.3 hPa SSW 9.7 km/h 19.3 km/h 98 % 0 mm
21:51 12.6 °C 12.2 °C 1003.3 hPa SSW 9.7 km/h 20.9 km/h 98 % 0 mm
21:56 12.6 °C 12.3 °C 1002.9 hPa SSW 8 km/h 19.3 km/h 98 % 0 mm
22:00 12.7 °C 12.4 °C 1003.3 hPa South 7.9 km/h 13 km/h 98 % 0 mm
22:06 12.8 °C 12.6 °C 1003.3 hPa SSW 8 km/h 12.9 km/h 98 % 0 mm
22:11 13 °C 12.7 °C 1002.9 hPa SSW 11.3 km/h 19.3 km/h 98 % 0 mm
22:16 13.1 °C 12.9 °C 1003.3 hPa SSW 9.7 km/h 24.1 km/h 99 % 0 mm
22:21 13.2 °C 13 °C 1002.9 hPa SSW 4.8 km/h 11.3 km/h 99 % 0 mm
22:26 13.3 °C 12.9 °C 1002.9 hPa SSW 9.7 km/h 19.3 km/h 98 % 0 mm
22:31 13.3 °C 13 °C 1003.3 hPa South 9.7 km/h 19.3 km/h 98 % 0 mm
22:35 13.4 °C 13.1 °C 1003.3 hPa SSW 8.5 km/h 16.7 km/h 98 % 0 mm
22:40 13.4 °C 13.3 °C 1003.6 hPa SSW 8 km/h 16.1 km/h 99 % 0 mm
22:46 13.4 °C 13.3 °C 1003.3 hPa SSW 8 km/h 14.5 km/h 99 % 0 mm
22:50 13.4 °C 13.1 °C 1003.6 hPa SSW 4.8 km/h 12.9 km/h 98 % 0 mm
22:55 13.4 °C 13.2 °C 1003.3 hPa SSW 9.7 km/h 12.9 km/h 98 % 0 mm
23:01 13.6 °C 13.3 °C 1003.3 hPa South 12.2 km/h 19.3 km/h 98 % 0 mm
23:06 13.8 °C 13.6 °C 1003.6 hPa SSW 7.4 km/h 24.1 km/h 99 % 0 mm
23:11 13.9 °C 13.6 °C 1003.3 hPa SSW 6.1 km/h 13 km/h 98 % 0 mm
23:16 14 °C 13.7 °C 1003.3 hPa SSW 8.5 km/h 14.8 km/h 98 % 0 mm
23:21 14.1 °C 13.9 °C 1003.6 hPa South 6.8 km/h 13 km/h 99 % 0 mm
23:26 14.1 °C 13.9 °C 1003.3 hPa South 5.3 km/h 9.3 km/h 99 % 0 mm
23:31 14.1 °C 13.9 °C 1003.3 hPa SSW 8.4 km/h 12.9 km/h 99 % 0 mm
23:36 14.1 °C 13.9 °C 1003.3 hPa SSE 8.4 km/h 11.1 km/h 99 % 0 mm
23:41 14 °C 13.7 °C 1003.6 hPa SW 8.9 km/h 14.8 km/h 98 % 0 mm
23:46 14 °C 13.7 °C 1003.6 hPa SW 7.9 km/h 13 km/h 98 % 0 mm
23:51 13.9 °C 13.6 °C 1003.6 hPa SSW 6.4 km/h 13 km/h 98 % 0 mm
23:56 13.8 °C 13.5 °C 1003.9 hPa SSW 7.2 km/h 18.5 km/h 98 % 0 mm
Crab Meadow Weather
Compliments of Weather Underground - 3 mb

Script developed by  Jim McMurry - jmcmurry@mwt.net Adapted for the template by  Wim van der Kuil - Leuven-Template.eu

Extremes: A record low of - 128.6 degrees F was recorded at Vostok, Antarctica.